sensor_id;sensor_type;location;lat;lon;timestamp;P1;durP1;ratioP1;P2;durP2;ratioP2
72117;SDS011;59992;47.490;8.736;2022-11-20T00:02:08;5.10;;;2.70;;
72117;SDS011;59992;47.490;8.736;2022-11-20T00:04:56;5.80;;;2.80;;
72117;SDS011;59992;47.490;8.736;2022-11-20T00:07:45;7.80;;;3.00;;
72117;SDS011;59992;47.490;8.736;2022-11-20T00:10:35;4.30;;;2.40;;
72117;SDS011;59992;47.490;8.736;2022-11-20T00:13:23;8.00;;;3.20;;
72117;SDS011;59992;47.490;8.736;2022-11-20T00:16:12;10.70;;;3.90;;
72117;SDS011;59992;47.490;8.736;2022-11-20T00:19:01;7.70;;;3.70;;
72117;SDS011;59992;47.490;8.736;2022-11-20T00:21:50;8.00;;;3.40;;
72117;SDS011;59992;47.490;8.736;2022-11-20T00:24:40;9.10;;;3.70;;
72117;SDS011;59992;47.490;8.736;2022-11-20T00:27:28;8.00;;;3.80;;
72117;SDS011;59992;47.490;8.736;2022-11-20T00:30:16;7.30;;;3.70;;
72117;SDS011;59992;47.490;8.736;2022-11-20T00:33:06;7.20;;;3.50;;
72117;SDS011;59992;47.490;8.736;2022-11-20T00:35:56;7.10;;;3.40;;
72117;SDS011;59992;47.490;8.736;2022-11-20T00:38:50;6.40;;;3.20;;
72117;SDS011;59992;47.490;8.736;2022-11-20T00:41:39;7.60;;;3.10;;
72117;SDS011;59992;47.490;8.736;2022-11-20T00:44:27;8.70;;;3.40;;
72117;SDS011;59992;47.490;8.736;2022-11-20T00:47:15;7.20;;;3.30;;
72117;SDS011;59992;47.490;8.736;2022-11-20T00:50:04;7.60;;;3.20;;
72117;SDS011;59992;47.490;8.736;2022-11-20T00:52:52;5.50;;;2.80;;
72117;SDS011;59992;47.490;8.736;2022-11-20T00:55:40;5.70;;;3.00;;
72117;SDS011;59992;47.490;8.736;2022-11-20T00:58:29;5.30;;;3.10;;
72117;SDS011;59992;47.490;8.736;2022-11-20T01:01:20;8.00;;;2.70;;
72117;SDS011;59992;47.490;8.736;2022-11-20T01:04:10;5.20;;;3.10;;
72117;SDS011;59992;47.490;8.736;2022-11-20T01:06:58;6.90;;;3.60;;
72117;SDS011;59992;47.490;8.736;2022-11-20T01:09:46;5.40;;;3.10;;
72117;SDS011;59992;47.490;8.736;2022-11-20T01:12:35;5.00;;;2.70;;
72117;SDS011;59992;47.490;8.736;2022-11-20T01:15:23;11.00;;;2.70;;
72117;SDS011;59992;47.490;8.736;2022-11-20T01:18:11;6.20;;;2.90;;
72117;SDS011;59992;47.490;8.736;2022-11-20T01:21:02;6.00;;;2.70;;
72117;SDS011;59992;47.490;8.736;2022-11-20T01:23:52;8.20;;;2.60;;
72117;SDS011;59992;47.490;8.736;2022-11-20T01:26:41;6.60;;;2.70;;
72117;SDS011;59992;47.490;8.736;2022-11-20T01:29:30;4.70;;;2.40;;
72117;SDS011;59992;47.490;8.736;2022-11-20T01:32:18;5.80;;;3.10;;
72117;SDS011;59992;47.490;8.736;2022-11-20T01:35:07;6.30;;;2.40;;
72117;SDS011;59992;47.490;8.736;2022-11-20T01:37:56;7.20;;;3.00;;
72117;SDS011;59992;47.490;8.736;2022-11-20T01:40:44;6.70;;;2.50;;
72117;SDS011;59992;47.490;8.736;2022-11-20T01:43:32;6.50;;;2.90;;
72117;SDS011;59992;47.490;8.736;2022-11-20T01:46:22;6.30;;;2.50;;
72117;SDS011;59992;47.490;8.736;2022-11-20T01:49:11;7.50;;;2.70;;
72117;SDS011;59992;47.490;8.736;2022-11-20T01:52:07;6.50;;;2.70;;
72117;SDS011;59992;47.490;8.736;2022-11-20T01:55:01;6.40;;;2.10;;
72117;SDS011;59992;47.490;8.736;2022-11-20T01:57:54;3.90;;;2.10;;
72117;SDS011;59992;47.490;8.736;2022-11-20T02:00:42;5.80;;;2.30;;
72117;SDS011;59992;47.490;8.736;2022-11-20T02:03:30;5.00;;;2.20;;
72117;SDS011;59992;47.490;8.736;2022-11-20T02:06:21;6.10;;;2.50;;
72117;SDS011;59992;47.490;8.736;2022-11-20T02:09:13;3.90;;;2.20;;
72117;SDS011;59992;47.490;8.736;2022-11-20T02:12:02;7.40;;;2.10;;
72117;SDS011;59992;47.490;8.736;2022-11-20T02:14:51;6.30;;;1.80;;
72117;SDS011;59992;47.490;8.736;2022-11-20T02:17:40;4.00;;;1.90;;
72117;SDS011;59992;47.490;8.736;2022-11-20T02:20:28;4.70;;;2.00;;
72117;SDS011;59992;47.490;8.736;2022-11-20T02:23:18;4.80;;;2.20;;
72117;SDS011;59992;47.490;8.736;2022-11-20T02:26:11;3.60;;;1.90;;
72117;SDS011;59992;47.490;8.736;2022-11-20T02:29:03;3.60;;;1.90;;
72117;SDS011;59992;47.490;8.736;2022-11-20T02:31:51;2.90;;;1.60;;
72117;SDS011;59992;47.490;8.736;2022-11-20T02:34:40;5.20;;;1.60;;
72117;SDS011;59992;47.490;8.736;2022-11-20T02:37:30;3.80;;;1.60;;
72117;SDS011;59992;47.490;8.736;2022-11-20T02:40:22;4.90;;;1.70;;
72117;SDS011;59992;47.490;8.736;2022-11-20T02:43:10;3.60;;;1.90;;
72117;SDS011;59992;47.490;8.736;2022-11-20T02:45:59;3.40;;;1.80;;
72117;SDS011;59992;47.490;8.736;2022-11-20T02:48:47;4.30;;;1.40;;
72117;SDS011;59992;47.490;8.736;2022-11-20T02:51:35;7.20;;;1.70;;
72117;SDS011;59992;47.490;8.736;2022-11-20T02:54:23;4.70;;;1.80;;
72117;SDS011;59992;47.490;8.736;2022-11-20T02:57:11;4.10;;;1.20;;
72117;SDS011;59992;47.490;8.736;2022-11-20T03:00:00;3.30;;;1.50;;
72117;SDS011;59992;47.490;8.736;2022-11-20T03:02:48;4.10;;;1.40;;
72117;SDS011;59992;47.490;8.736;2022-11-20T03:05:36;2.10;;;1.20;;
72117;SDS011;59992;47.490;8.736;2022-11-20T03:08:24;4.30;;;1.30;;
72117;SDS011;59992;47.490;8.736;2022-11-20T03:11:12;3.90;;;1.20;;
72117;SDS011;59992;47.490;8.736;2022-11-20T03:14:02;4.30;;;1.10;;
72117;SDS011;59992;47.490;8.736;2022-11-20T03:16:50;2.90;;;1.20;;
72117;SDS011;59992;47.490;8.736;2022-11-20T03:19:38;1.90;;;1.10;;
72117;SDS011;59992;47.490;8.736;2022-11-20T03:22:28;2.60;;;1.50;;
72117;SDS011;59992;47.490;8.736;2022-11-20T03:25:17;3.80;;;1.60;;
72117;SDS011;59992;47.490;8.736;2022-11-20T03:28:05;3.20;;;1.10;;
72117;SDS011;59992;47.490;8.736;2022-11-20T03:30:53;1.80;;;0.90;;
72117;SDS011;59992;47.490;8.736;2022-11-20T03:33:41;3.80;;;1.20;;
72117;SDS011;59992;47.490;8.736;2022-11-20T03:36:30;2.20;;;1.30;;
72117;SDS011;59992;47.490;8.736;2022-11-20T03:39:19;1.80;;;0.80;;
72117;SDS011;59992;47.490;8.736;2022-11-20T03:42:07;4.90;;;1.20;;
72117;SDS011;59992;47.490;8.736;2022-11-20T03:45:17;2.20;;;1.10;;
72117;SDS011;59992;47.490;8.736;2022-11-20T03:48:05;1.70;;;1.10;;
72117;SDS011;59992;47.490;8.736;2022-11-20T03:50:54;3.10;;;1.30;;
72117;SDS011;59992;47.490;8.736;2022-11-20T03:53:55;2.70;;;1.00;;
72117;SDS011;59992;47.490;8.736;2022-11-20T03:56:45;2.80;;;1.20;;
72117;SDS011;59992;47.490;8.736;2022-11-20T03:59:33;2.70;;;1.10;;
72117;SDS011;59992;47.490;8.736;2022-11-20T04:02:21;3.60;;;1.30;;
72117;SDS011;59992;47.490;8.736;2022-11-20T04:05:09;3.20;;;1.40;;
72117;SDS011;59992;47.490;8.736;2022-11-20T04:07:58;3.80;;;1.30;;
72117;SDS011;59992;47.490;8.736;2022-11-20T04:10:46;2.50;;;1.20;;
72117;SDS011;59992;47.490;8.736;2022-11-20T04:13:34;3.70;;;1.10;;
72117;SDS011;59992;47.490;8.736;2022-11-20T04:16:22;6.70;;;1.20;;
72117;SDS011;59992;47.490;8.736;2022-11-20T04:19:14;3.50;;;1.30;;
72117;SDS011;59992;47.490;8.736;2022-11-20T04:22:03;2.10;;;1.10;;
72117;SDS011;59992;47.490;8.736;2022-11-20T04:24:51;2.30;;;1.20;;
72117;SDS011;59992;47.490;8.736;2022-11-20T04:27:39;3.10;;;1.00;;
72117;SDS011;59992;47.490;8.736;2022-11-20T04:30:28;3.00;;;1.30;;
72117;SDS011;59992;47.490;8.736;2022-11-20T04:33:16;1.80;;;1.00;;
72117;SDS011;59992;47.490;8.736;2022-11-20T04:36:05;1.90;;;0.90;;
72117;SDS011;59992;47.490;8.736;2022-11-20T04:38:56;1.80;;;1.00;;
72117;SDS011;59992;47.490;8.736;2022-11-20T04:41:45;1.60;;;0.90;;
72117;SDS011;59992;47.490;8.736;2022-11-20T04:44:34;1.60;;;0.90;;
72117;SDS011;59992;47.490;8.736;2022-11-20T04:47:23;2.50;;;1.10;;
72117;SDS011;59992;47.490;8.736;2022-11-20T04:50:11;6.60;;;1.40;;
72117;SDS011;59992;47.490;8.736;2022-11-20T04:53:00;1.50;;;0.90;;
72117;SDS011;59992;47.490;8.736;2022-11-20T04:55:48;3.10;;;1.10;;
72117;SDS011;59992;47.490;8.736;2022-11-20T04:58:37;2.50;;;1.10;;
72117;SDS011;59992;47.490;8.736;2022-11-20T05:01:25;1.30;;;0.80;;
72117;SDS011;59992;47.490;8.736;2022-11-20T05:04:13;2.10;;;1.00;;
72117;SDS011;59992;47.490;8.736;2022-11-20T05:07:02;3.30;;;1.00;;
72117;SDS011;59992;47.490;8.736;2022-11-20T05:09:50;2.90;;;1.20;;
72117;SDS011;59992;47.490;8.736;2022-11-20T05:12:38;3.90;;;1.60;;
72117;SDS011;59992;47.490;8.736;2022-11-20T05:15:26;4.30;;;1.70;;
72117;SDS011;59992;47.490;8.736;2022-11-20T05:18:14;1.90;;;1.20;;
72117;SDS011;59992;47.490;8.736;2022-11-20T05:21:02;1.90;;;1.00;;
72117;SDS011;59992;47.490;8.736;2022-11-20T05:23:52;1.90;;;0.90;;
72117;SDS011;59992;47.490;8.736;2022-11-20T05:26:40;1.80;;;1.00;;
72117;SDS011;59992;47.490;8.736;2022-11-20T05:29:28;2.00;;;1.30;;
72117;SDS011;59992;47.490;8.736;2022-11-20T05:32:16;1.80;;;1.00;;
72117;SDS011;59992;47.490;8.736;2022-11-20T05:35:05;3.30;;;1.20;;
72117;SDS011;59992;47.490;8.736;2022-11-20T05:37:54;2.40;;;1.20;;
72117;SDS011;59992;47.490;8.736;2022-11-20T05:40:42;3.40;;;1.50;;
72117;SDS011;59992;47.490;8.736;2022-11-20T05:43:31;4.40;;;1.60;;
72117;SDS011;59992;47.490;8.736;2022-11-20T05:46:20;3.00;;;1.30;;
72117;SDS011;59992;47.490;8.736;2022-11-20T05:49:09;3.10;;;1.20;;
72117;SDS011;59992;47.490;8.736;2022-11-20T05:51:57;3.50;;;1.60;;
72117;SDS011;59992;47.490;8.736;2022-11-20T05:54:45;6.80;;;1.50;;
72117;SDS011;59992;47.490;8.736;2022-11-20T05:57:33;3.50;;;1.40;;
72117;SDS011;59992;47.490;8.736;2022-11-20T06:00:21;3.20;;;1.50;;
72117;SDS011;59992;47.490;8.736;2022-11-20T06:03:09;3.40;;;1.30;;
72117;SDS011;59992;47.490;8.736;2022-11-20T06:05:58;3.20;;;1.20;;
72117;SDS011;59992;47.490;8.736;2022-11-20T06:08:47;3.90;;;1.50;;
72117;SDS011;59992;47.490;8.736;2022-11-20T06:11:36;3.90;;;1.50;;
72117;SDS011;59992;47.490;8.736;2022-11-20T06:14:24;3.80;;;1.80;;
72117;SDS011;59992;47.490;8.736;2022-11-20T06:17:12;2.20;;;1.60;;
72117;SDS011;59992;47.490;8.736;2022-11-20T06:20:01;3.90;;;1.60;;
72117;SDS011;59992;47.490;8.736;2022-11-20T06:22:49;4.20;;;1.70;;
72117;SDS011;59992;47.490;8.736;2022-11-20T06:25:38;2.90;;;1.50;;
72117;SDS011;59992;47.490;8.736;2022-11-20T06:28:26;2.40;;;1.20;;
72117;SDS011;59992;47.490;8.736;2022-11-20T06:31:15;2.70;;;1.30;;
72117;SDS011;59992;47.490;8.736;2022-11-20T06:34:05;2.10;;;1.20;;
72117;SDS011;59992;47.490;8.736;2022-11-20T06:36:54;3.70;;;1.40;;
72117;SDS011;59992;47.490;8.736;2022-11-20T06:39:42;3.00;;;1.60;;
72117;SDS011;59992;47.490;8.736;2022-11-20T06:42:30;3.40;;;1.60;;
72117;SDS011;59992;47.490;8.736;2022-11-20T06:45:19;3.30;;;1.80;;
72117;SDS011;59992;47.490;8.736;2022-11-20T06:48:08;2.70;;;1.10;;
72117;SDS011;59992;47.490;8.736;2022-11-20T06:50:56;2.90;;;1.40;;
72117;SDS011;59992;47.490;8.736;2022-11-20T06:53:44;2.50;;;1.50;;
72117;SDS011;59992;47.490;8.736;2022-11-20T06:56:32;5.50;;;1.90;;
72117;SDS011;59992;47.490;8.736;2022-11-20T06:59:21;4.10;;;1.70;;
72117;SDS011;59992;47.490;8.736;2022-11-20T07:02:09;2.40;;;1.30;;
72117;SDS011;59992;47.490;8.736;2022-11-20T07:04:58;3.70;;;1.60;;
72117;SDS011;59992;47.490;8.736;2022-11-20T07:07:47;3.50;;;1.90;;
72117;SDS011;59992;47.490;8.736;2022-11-20T07:10:35;5.90;;;1.60;;
72117;SDS011;59992;47.490;8.736;2022-11-20T07:13:23;3.30;;;1.40;;
72117;SDS011;59992;47.490;8.736;2022-11-20T07:16:12;3.90;;;1.60;;
72117;SDS011;59992;47.490;8.736;2022-11-20T07:19:00;3.70;;;1.70;;
72117;SDS011;59992;47.490;8.736;2022-11-20T07:21:48;2.90;;;1.50;;
72117;SDS011;59992;47.490;8.736;2022-11-20T07:24:39;2.50;;;1.30;;
72117;SDS011;59992;47.490;8.736;2022-11-20T07:27:27;4.60;;;1.40;;
72117;SDS011;59992;47.490;8.736;2022-11-20T07:30:16;3.50;;;1.70;;
72117;SDS011;59992;47.490;8.736;2022-11-20T07:33:04;4.00;;;1.40;;
72117;SDS011;59992;47.490;8.736;2022-11-20T07:35:52;4.10;;;1.60;;
72117;SDS011;59992;47.490;8.736;2022-11-20T07:38:40;2.70;;;1.60;;
72117;SDS011;59992;47.490;8.736;2022-11-20T07:41:29;3.30;;;1.60;;
72117;SDS011;59992;47.490;8.736;2022-11-20T07:44:17;2.60;;;1.30;;
72117;SDS011;59992;47.490;8.736;2022-11-20T07:47:05;6.80;;;1.90;;
72117;SDS011;59992;47.490;8.736;2022-11-20T07:49:54;2.40;;;1.40;;
72117;SDS011;59992;47.490;8.736;2022-11-20T07:52:42;3.70;;;1.40;;
72117;SDS011;59992;47.490;8.736;2022-11-20T07:55:30;2.60;;;1.30;;
72117;SDS011;59992;47.490;8.736;2022-11-20T07:58:19;2.70;;;1.50;;
72117;SDS011;59992;47.490;8.736;2022-11-20T08:01:07;2.90;;;1.50;;
72117;SDS011;59992;47.490;8.736;2022-11-20T08:03:55;3.70;;;1.60;;
72117;SDS011;59992;47.490;8.736;2022-11-20T08:06:44;2.40;;;1.30;;
72117;SDS011;59992;47.490;8.736;2022-11-20T08:09:32;3.10;;;1.50;;
72117;SDS011;59992;47.490;8.736;2022-11-20T08:12:20;3.00;;;1.70;;
72117;SDS011;59992;47.490;8.736;2022-11-20T08:15:27;3.40;;;1.50;;
72117;SDS011;59992;47.490;8.736;2022-11-20T08:18:15;2.30;;;1.10;;
72117;SDS011;59992;47.490;8.736;2022-11-20T08:21:04;2.30;;;1.10;;
72117;SDS011;59992;47.490;8.736;2022-11-20T08:23:52;2.60;;;1.40;;
72117;SDS011;59992;47.490;8.736;2022-11-20T08:26:40;2.70;;;1.40;;
72117;SDS011;59992;47.490;8.736;2022-11-20T08:29:29;3.60;;;1.30;;
72117;SDS011;59992;47.490;8.736;2022-11-20T08:32:17;2.60;;;1.40;;
72117;SDS011;59992;47.490;8.736;2022-11-20T08:35:05;1.90;;;1.30;;
72117;SDS011;59992;47.490;8.736;2022-11-20T08:37:55;2.20;;;0.90;;
72117;SDS011;59992;47.490;8.736;2022-11-20T08:40:43;2.70;;;1.00;;
72117;SDS011;59992;47.490;8.736;2022-11-20T08:43:53;1.90;;;1.20;;
72117;SDS011;59992;47.490;8.736;2022-11-20T08:46:42;2.10;;;1.40;;
72117;SDS011;59992;47.490;8.736;2022-11-20T08:49:32;1.70;;;1.20;;
72117;SDS011;59992;47.490;8.736;2022-11-20T08:52:20;2.20;;;1.00;;
72117;SDS011;59992;47.490;8.736;2022-11-20T08:55:09;2.40;;;1.10;;
72117;SDS011;59992;47.490;8.736;2022-11-20T08:57:57;3.20;;;1.20;;
72117;SDS011;59992;47.490;8.736;2022-11-20T09:00:50;2.00;;;1.20;;
72117;SDS011;59992;47.490;8.736;2022-11-20T09:03:38;1.50;;;1.00;;
72117;SDS011;59992;47.490;8.736;2022-11-20T09:06:28;2.30;;;0.80;;
72117;SDS011;59992;47.490;8.736;2022-11-20T09:09:16;2.20;;;1.00;;
72117;SDS011;59992;47.490;8.736;2022-11-20T09:12:04;2.80;;;1.10;;
72117;SDS011;59992;47.490;8.736;2022-11-20T09:14:52;2.30;;;1.00;;
72117;SDS011;59992;47.490;8.736;2022-11-20T09:17:40;2.10;;;0.70;;
72117;SDS011;59992;47.490;8.736;2022-11-20T09:20:29;2.80;;;0.90;;
72117;SDS011;59992;47.490;8.736;2022-11-20T09:23:17;2.20;;;0.70;;
72117;SDS011;59992;47.490;8.736;2022-11-20T09:26:06;1.80;;;0.80;;
72117;SDS011;59992;47.490;8.736;2022-11-20T09:28:56;2.70;;;1.00;;
72117;SDS011;59992;47.490;8.736;2022-11-20T09:31:45;1.80;;;0.80;;
72117;SDS011;59992;47.490;8.736;2022-11-20T09:34:33;1.80;;;1.00;;
72117;SDS011;59992;47.490;8.736;2022-11-20T09:37:21;2.10;;;0.90;;
72117;SDS011;59992;47.490;8.736;2022-11-20T09:40:12;2.00;;;0.70;;
72117;SDS011;59992;47.490;8.736;2022-11-20T09:43:09;2.80;;;0.80;;
72117;SDS011;59992;47.490;8.736;2022-11-20T09:46:05;1.40;;;0.80;;
72117;SDS011;59992;47.490;8.736;2022-11-20T09:49:09;1.50;;;0.80;;
72117;SDS011;59992;47.490;8.736;2022-11-20T09:52:12;2.80;;;1.20;;
72117;SDS011;59992;47.490;8.736;2022-11-20T09:55:07;1.50;;;0.80;;
72117;SDS011;59992;47.490;8.736;2022-11-20T09:57:58;2.80;;;0.90;;
72117;SDS011;59992;47.490;8.736;2022-11-20T10:00:47;1.80;;;0.80;;
72117;SDS011;59992;47.490;8.736;2022-11-20T10:03:37;1.40;;;0.60;;
72117;SDS011;59992;47.490;8.736;2022-11-20T10:06:34;1.00;;;0.60;;
72117;SDS011;59992;47.490;8.736;2022-11-20T10:09:30;1.50;;;0.70;;
72117;SDS011;59992;47.490;8.736;2022-11-20T10:12:23;1.30;;;0.70;;
72117;SDS011;59992;47.490;8.736;2022-11-20T10:15:25;2.80;;;1.00;;
72117;SDS011;59992;47.490;8.736;2022-11-20T10:18:23;2.80;;;0.90;;
72117;SDS011;59992;47.490;8.736;2022-11-20T10:21:28;1.60;;;0.60;;
72117;SDS011;59992;47.490;8.736;2022-11-20T10:24:33;1.00;;;0.60;;
72117;SDS011;59992;47.490;8.736;2022-11-20T10:27:32;3.70;;;0.80;;
72117;SDS011;59992;47.490;8.736;2022-11-20T10:30:40;1.40;;;0.90;;
72117;SDS011;59992;47.490;8.736;2022-11-20T10:33:32;1.40;;;0.60;;
72117;SDS011;59992;47.490;8.736;2022-11-20T10:36:23;1.50;;;0.80;;
72117;SDS011;59992;47.490;8.736;2022-11-20T10:39:16;3.70;;;1.00;;
72117;SDS011;59992;47.490;8.736;2022-11-20T10:42:10;1.70;;;0.80;;
72117;SDS011;59992;47.490;8.736;2022-11-20T10:45:09;4.30;;;0.80;;
72117;SDS011;59992;47.490;8.736;2022-11-20T10:48:10;1.30;;;0.70;;
72117;SDS011;59992;47.490;8.736;2022-11-20T10:51:18;1.20;;;0.70;;
72117;SDS011;59992;47.490;8.736;2022-11-20T10:54:18;1.60;;;0.60;;
72117;SDS011;59992;47.490;8.736;2022-11-20T10:57:15;2.40;;;0.90;;
72117;SDS011;59992;47.490;8.736;2022-11-20T11:00:13;1.40;;;0.80;;
72117;SDS011;59992;47.490;8.736;2022-11-20T11:03:07;1.60;;;0.80;;
72117;SDS011;59992;47.490;8.736;2022-11-20T11:06:08;1.90;;;0.80;;
72117;SDS011;59992;47.490;8.736;2022-11-20T11:09:04;2.20;;;0.90;;
72117;SDS011;59992;47.490;8.736;2022-11-20T11:11:59;1.60;;;0.70;;
72117;SDS011;59992;47.490;8.736;2022-11-20T11:14:48;1.20;;;0.80;;
72117;SDS011;59992;47.490;8.736;2022-11-20T11:17:37;0.90;;;0.60;;
72117;SDS011;59992;47.490;8.736;2022-11-20T11:20:34;1.20;;;0.60;;
72117;SDS011;59992;47.490;8.736;2022-11-20T11:23:26;1.40;;;0.60;;
72117;SDS011;59992;47.490;8.736;2022-11-20T11:26:19;3.50;;;0.80;;
72117;SDS011;59992;47.490;8.736;2022-11-20T11:29:17;1.80;;;0.80;;
72117;SDS011;59992;47.490;8.736;2022-11-20T11:32:06;1.00;;;0.50;;
72117;SDS011;59992;47.490;8.736;2022-11-20T11:35:02;3.30;;;1.90;;
72117;SDS011;59992;47.490;8.736;2022-11-20T11:37:52;2.50;;;1.20;;
72117;SDS011;59992;47.490;8.736;2022-11-20T11:40:42;1.70;;;0.90;;
72117;SDS011;59992;47.490;8.736;2022-11-20T11:43:31;3.10;;;0.60;;
72117;SDS011;59992;47.490;8.736;2022-11-20T11:46:39;1.00;;;0.70;;
72117;SDS011;59992;47.490;8.736;2022-11-20T11:49:36;1.10;;;0.60;;
72117;SDS011;59992;47.490;8.736;2022-11-20T11:52:24;2.80;;;0.90;;
72117;SDS011;59992;47.490;8.736;2022-11-20T11:55:26;2.50;;;0.90;;
72117;SDS011;59992;47.490;8.736;2022-11-20T11:58:23;1.80;;;0.80;;
72117;SDS011;59992;47.490;8.736;2022-11-20T12:01:29;2.30;;;0.70;;
72117;SDS011;59992;47.490;8.736;2022-11-20T12:04:28;4.00;;;0.90;;
72117;SDS011;59992;47.490;8.736;2022-11-20T12:07:32;3.30;;;0.90;;
72117;SDS011;59992;47.490;8.736;2022-11-20T12:10:33;3.60;;;1.10;;
72117;SDS011;59992;47.490;8.736;2022-11-20T12:13:34;2.90;;;1.00;;
72117;SDS011;59992;47.490;8.736;2022-11-20T12:16:27;3.00;;;0.90;;
72117;SDS011;59992;47.490;8.736;2022-11-20T12:19:21;1.70;;;0.70;;
72117;SDS011;59992;47.490;8.736;2022-11-20T12:22:13;1.70;;;0.70;;
72117;SDS011;59992;47.490;8.736;2022-11-20T12:25:11;3.70;;;0.80;;
72117;SDS011;59992;47.490;8.736;2022-11-20T12:31:27;0.90;;;0.60;;
72117;SDS011;59992;47.490;8.736;2022-11-20T12:34:39;1.40;;;0.70;;
72117;SDS011;59992;47.490;8.736;2022-11-20T12:37:44;3.80;;;0.70;;
72117;SDS011;59992;47.490;8.736;2022-11-20T12:40:39;1.10;;;0.60;;
72117;SDS011;59992;47.490;8.736;2022-11-20T12:43:37;1.80;;;0.70;;
72117;SDS011;59992;47.490;8.736;2022-11-20T12:46:51;1.70;;;0.70;;
72117;SDS011;59992;47.490;8.736;2022-11-20T12:49:50;1.60;;;0.60;;
72117;SDS011;59992;47.490;8.736;2022-11-20T12:52:48;1.10;;;0.60;;
72117;SDS011;59992;47.490;8.736;2022-11-20T12:55:44;3.20;;;1.20;;
72117;SDS011;59992;47.490;8.736;2022-11-20T12:58:39;1.80;;;0.70;;
72117;SDS011;59992;47.490;8.736;2022-11-20T13:01:35;1.30;;;0.60;;
72117;SDS011;59992;47.490;8.736;2022-11-20T13:04:39;1.30;;;0.70;;
72117;SDS011;59992;47.490;8.736;2022-11-20T13:07:41;2.50;;;1.00;;
72117;SDS011;59992;47.490;8.736;2022-11-20T13:10:33;0.80;;;0.50;;
72117;SDS011;59992;47.490;8.736;2022-11-20T13:13:29;0.90;;;0.50;;
72117;SDS011;59992;47.490;8.736;2022-11-20T13:16:24;1.10;;;0.60;;
72117;SDS011;59992;47.490;8.736;2022-11-20T13:19:19;1.50;;;0.60;;
72117;SDS011;59992;47.490;8.736;2022-11-20T13:22:08;1.10;;;0.50;;
72117;SDS011;59992;47.490;8.736;2022-11-20T13:25:00;2.10;;;0.90;;
72117;SDS011;59992;47.490;8.736;2022-11-20T13:27:48;1.50;;;0.70;;
72117;SDS011;59992;47.490;8.736;2022-11-20T13:30:37;2.30;;;0.70;;
72117;SDS011;59992;47.490;8.736;2022-11-20T13:33:37;1.90;;;0.70;;
72117;SDS011;59992;47.490;8.736;2022-11-20T13:36:26;0.90;;;0.60;;
72117;SDS011;59992;47.490;8.736;2022-11-20T13:39:25;1.60;;;0.60;;
72117;SDS011;59992;47.490;8.736;2022-11-20T13:42:20;0.80;;;0.50;;
72117;SDS011;59992;47.490;8.736;2022-11-20T13:45:22;2.20;;;0.50;;
72117;SDS011;59992;47.490;8.736;2022-11-20T13:48:19;1.00;;;0.50;;
72117;SDS011;59992;47.490;8.736;2022-11-20T13:51:12;2.60;;;0.90;;
72117;SDS011;59992;47.490;8.736;2022-11-20T13:54:16;1.10;;;0.60;;
72117;SDS011;59992;47.490;8.736;2022-11-20T13:57:25;1.70;;;0.60;;
72117;SDS011;59992;47.490;8.736;2022-11-20T14:00:43;1.00;;;0.50;;
72117;SDS011;59992;47.490;8.736;2022-11-20T14:03:35;0.80;;;0.60;;
72117;SDS011;59992;47.490;8.736;2022-11-20T14:06:26;1.30;;;0.60;;
72117;SDS011;59992;47.490;8.736;2022-11-20T14:09:25;1.50;;;0.70;;
72117;SDS011;59992;47.490;8.736;2022-11-20T14:12:16;1.50;;;0.50;;
72117;SDS011;59992;47.490;8.736;2022-11-20T14:18:19;3.20;;;1.10;;
72117;SDS011;59992;47.490;8.736;2022-11-20T14:21:09;1.80;;;0.70;;
72117;SDS011;59992;47.490;8.736;2022-11-20T14:24:06;2.20;;;0.70;;
72117;SDS011;59992;47.490;8.736;2022-11-20T14:26:57;1.60;;;0.70;;
72117;SDS011;59992;47.490;8.736;2022-11-20T14:29:46;1.80;;;0.50;;
72117;SDS011;59992;47.490;8.736;2022-11-20T14:32:36;1.20;;;0.60;;
72117;SDS011;59992;47.490;8.736;2022-11-20T14:35:25;1.10;;;0.50;;
72117;SDS011;59992;47.490;8.736;2022-11-20T14:38:15;1.00;;;0.50;;
72117;SDS011;59992;47.490;8.736;2022-11-20T14:41:07;0.90;;;0.50;;
72117;SDS011;59992;47.490;8.736;2022-11-20T14:43:56;0.90;;;0.60;;
72117;SDS011;59992;47.490;8.736;2022-11-20T14:46:46;0.90;;;0.50;;
72117;SDS011;59992;47.490;8.736;2022-11-20T14:49:34;1.50;;;0.80;;
72117;SDS011;59992;47.490;8.736;2022-11-20T14:52:25;0.70;;;0.50;;
72117;SDS011;59992;47.490;8.736;2022-11-20T14:55:14;1.80;;;1.10;;
72117;SDS011;59992;47.490;8.736;2022-11-20T14:58:21;0.50;;;0.40;;
72117;SDS011;59992;47.490;8.736;2022-11-20T15:01:12;0.80;;;0.50;;
72117;SDS011;59992;47.490;8.736;2022-11-20T15:04:04;0.80;;;0.60;;
72117;SDS011;59992;47.490;8.736;2022-11-20T15:06:59;2.40;;;0.60;;
72117;SDS011;59992;47.490;8.736;2022-11-20T15:09:47;1.00;;;0.50;;
72117;SDS011;59992;47.490;8.736;2022-11-20T15:12:46;1.10;;;0.40;;
72117;SDS011;59992;47.490;8.736;2022-11-20T15:15:46;1.70;;;0.50;;
72117;SDS011;59992;47.490;8.736;2022-11-20T15:18:41;1.90;;;0.50;;
72117;SDS011;59992;47.490;8.736;2022-11-20T15:21:29;1.30;;;0.50;;
72117;SDS011;59992;47.490;8.736;2022-11-20T15:24:17;1.70;;;0.60;;
72117;SDS011;59992;47.490;8.736;2022-11-20T15:27:08;2.40;;;0.60;;
72117;SDS011;59992;47.490;8.736;2022-11-20T15:29:57;1.10;;;0.60;;
72117;SDS011;59992;47.490;8.736;2022-11-20T15:32:45;1.20;;;0.50;;
72117;SDS011;59992;47.490;8.736;2022-11-20T15:35:34;1.60;;;0.70;;
72117;SDS011;59992;47.490;8.736;2022-11-20T15:38:21;1.20;;;0.50;;
72117;SDS011;59992;47.490;8.736;2022-11-20T15:41:09;1.60;;;0.70;;
72117;SDS011;59992;47.490;8.736;2022-11-20T15:43:57;1.70;;;0.60;;
72117;SDS011;59992;47.490;8.736;2022-11-20T15:46:45;1.50;;;0.70;;
72117;SDS011;59992;47.490;8.736;2022-11-20T15:49:33;1.60;;;0.50;;
72117;SDS011;59992;47.490;8.736;2022-11-20T15:52:28;1.60;;;0.60;;
72117;SDS011;59992;47.490;8.736;2022-11-20T15:55:16;2.20;;;0.60;;
72117;SDS011;59992;47.490;8.736;2022-11-20T15:58:04;1.20;;;0.60;;
72117;SDS011;59992;47.490;8.736;2022-11-20T16:00:52;0.70;;;0.50;;
72117;SDS011;59992;47.490;8.736;2022-11-20T16:03:40;1.40;;;0.50;;
72117;SDS011;59992;47.490;8.736;2022-11-20T16:06:28;2.50;;;0.50;;
72117;SDS011;59992;47.490;8.736;2022-11-20T16:09:16;1.70;;;0.80;;
72117;SDS011;59992;47.490;8.736;2022-11-20T16:12:05;1.40;;;0.70;;
72117;SDS011;59992;47.490;8.736;2022-11-20T16:14:54;1.60;;;0.90;;
72117;SDS011;59992;47.490;8.736;2022-11-20T16:18:01;2.10;;;1.00;;
72117;SDS011;59992;47.490;8.736;2022-11-20T16:20:50;1.50;;;0.90;;
72117;SDS011;59992;47.490;8.736;2022-11-20T16:24:05;1.60;;;0.70;;
72117;SDS011;59992;47.490;8.736;2022-11-20T16:26:54;1.30;;;0.70;;
72117;SDS011;59992;47.490;8.736;2022-11-20T16:29:43;1.00;;;0.60;;
72117;SDS011;59992;47.490;8.736;2022-11-20T16:32:31;2.00;;;0.60;;
72117;SDS011;59992;47.490;8.736;2022-11-20T16:35:18;1.30;;;0.60;;
72117;SDS011;59992;47.490;8.736;2022-11-20T16:38:06;1.50;;;0.50;;
72117;SDS011;59992;47.490;8.736;2022-11-20T16:41:00;1.30;;;0.60;;
72117;SDS011;59992;47.490;8.736;2022-11-20T16:43:48;1.80;;;0.60;;
72117;SDS011;59992;47.490;8.736;2022-11-20T16:46:41;1.50;;;0.60;;
72117;SDS011;59992;47.490;8.736;2022-11-20T16:49:29;2.10;;;0.80;;
72117;SDS011;59992;47.490;8.736;2022-11-20T16:52:18;1.70;;;0.70;;
72117;SDS011;59992;47.490;8.736;2022-11-20T16:55:07;2.30;;;0.70;;
72117;SDS011;59992;47.490;8.736;2022-11-20T16:57:55;2.90;;;0.90;;
72117;SDS011;59992;47.490;8.736;2022-11-20T17:00:43;1.00;;;0.50;;
72117;SDS011;59992;47.490;8.736;2022-11-20T17:03:32;1.10;;;0.60;;
72117;SDS011;59992;47.490;8.736;2022-11-20T17:06:20;1.50;;;0.60;;
72117;SDS011;59992;47.490;8.736;2022-11-20T17:09:09;3.30;;;0.80;;
72117;SDS011;59992;47.490;8.736;2022-11-20T17:11:57;1.00;;;0.60;;
72117;SDS011;59992;47.490;8.736;2022-11-20T17:14:46;1.70;;;0.90;;
72117;SDS011;59992;47.490;8.736;2022-11-20T17:17:34;2.10;;;1.00;;
72117;SDS011;59992;47.490;8.736;2022-11-20T17:20:22;3.40;;;1.10;;